createdAt,value
2023-02-12T14:40:44.555Z,7.76
2023-02-12T14:48:04.045Z,7.51
2023-02-12T14:55:26.543Z,7.50
2023-02-12T15:02:47.655Z,7.32
2023-02-12T15:10:10.764Z,7.30
2023-02-12T15:17:31.363Z,7.35
2023-02-12T15:24:50.928Z,7.30
2023-02-12T15:32:11.243Z,7.09
2023-02-12T15:39:29.979Z,7.14
2023-02-12T15:46:57.309Z,6.93
2023-02-12T15:54:17.802Z,6.76
2023-02-12T16:01:37.089Z,6.78
2023-02-12T16:09:00.711Z,6.80
2023-02-12T16:16:23.700Z,6.70
2023-02-12T16:23:44.450Z,6.66
2023-02-12T16:31:14.747Z,6.57
2023-02-12T16:38:44.540Z,6.57
2023-02-12T16:46:06.924Z,6.48
2023-02-12T16:53:33.610Z,6.45
2023-02-12T17:00:51.897Z,6.43
2023-02-12T17:08:11.984Z,6.16
2023-02-12T17:15:35.210Z,5.98
2023-02-12T17:22:57.416Z,5.91
2023-02-12T17:30:17.335Z,6.06
2023-02-12T17:37:36.971Z,5.86
2023-02-12T17:44:55.161Z,5.87
2023-02-12T17:52:13.337Z,5.98
2023-02-12T17:59:33.033Z,5.89
2023-02-12T18:06:51.379Z,5.94
2023-02-12T18:14:11.444Z,5.91
2023-02-12T18:21:31.528Z,5.95
2023-02-12T18:28:50.487Z,5.98
2023-02-12T18:36:10.790Z,6.00
2023-02-12T18:43:30.432Z,5.96
2023-02-12T18:50:51.929Z,5.81
2023-02-12T18:58:10.315Z,5.82
2023-02-12T19:05:29.815Z,5.80
2023-02-12T19:12:47.987Z,5.91
2023-02-12T19:20:06.937Z,5.96
2023-02-12T19:27:26.701Z,5.88
2023-02-12T19:34:46.213Z,5.71
2023-02-12T19:42:04.711Z,5.79
2023-02-12T19:49:26.018Z,5.83
2023-02-12T19:56:44.892Z,5.78
2023-02-12T20:04:03.550Z,5.70
2023-02-12T20:11:25.472Z,5.70
2023-02-12T20:18:44.067Z,5.58
2023-02-12T20:26:05.444Z,5.37
2023-02-12T20:33:25.130Z,5.22
2023-02-12T20:40:43.392Z,5.44
2023-02-12T20:48:01.686Z,5.05
2023-02-12T20:55:21.543Z,4.98
2023-02-12T21:02:39.850Z,4.98
2023-02-12T21:10:00.394Z,4.98
2023-02-12T21:17:22.150Z,5.01
2023-02-12T21:24:40.442Z,4.86
2023-02-12T21:31:58.740Z,4.89
2023-02-12T21:39:24.632Z,4.93
2023-02-12T21:46:43.801Z,4.97
2023-02-12T21:54:03.890Z,4.93
2023-02-12T22:01:25.714Z,4.85
2023-02-12T22:08:44.017Z,4.88
2023-02-12T22:16:10.365Z,4.88
2023-02-12T22:23:29.952Z,4.76
2023-02-12T22:30:48.237Z,4.79
2023-02-12T22:38:06.464Z,4.69
2023-02-12T22:45:26.058Z,4.73
2023-02-12T22:52:44.193Z,4.70
2023-02-12T23:00:02.478Z,4.66
2023-02-12T23:07:22.194Z,4.71
2023-02-12T23:14:40.393Z,4.71
2023-02-12T23:21:58.762Z,4.65
2023-02-12T23:29:18.333Z,4.66
2023-02-12T23:36:36.641Z,4.68
2023-02-12T23:43:54.831Z,4.63
2023-02-12T23:51:14.611Z,4.66
2023-02-12T23:58:32.733Z,4.64
